sensor_id;sensor_type;location;lat;lon;timestamp;temperature;humidity
6879;DHT22;3478;51.462;7.338;2023-05-27T00:03:47;11.20;99.90
6879;DHT22;3478;51.462;7.338;2023-05-27T00:08:49;11.10;99.90
6879;DHT22;3478;51.462;7.338;2023-05-27T00:13:52;11.10;99.90
6879;DHT22;3478;51.462;7.338;2023-05-27T00:18:54;11.00;99.90
6879;DHT22;3478;51.462;7.338;2023-05-27T00:23:56;11.00;99.90
6879;DHT22;3478;51.462;7.338;2023-05-27T00:29:00;10.80;99.90
6879;DHT22;3478;51.462;7.338;2023-05-27T00:34:02;10.70;99.90
6879;DHT22;3478;51.462;7.338;2023-05-27T00:39:03;10.60;99.90
6879;DHT22;3478;51.462;7.338;2023-05-27T00:44:07;10.60;99.90
6879;DHT22;3478;51.462;7.338;2023-05-27T00:49:09;10.50;99.90
6879;DHT22;3478;51.462;7.338;2023-05-27T00:54:11;10.50;99.90
6879;DHT22;3478;51.462;7.338;2023-05-27T00:59:15;10.40;99.90
6879;DHT22;3478;51.462;7.338;2023-05-27T01:04:17;10.30;99.90
6879;DHT22;3478;51.462;7.338;2023-05-27T01:09:24;10.20;99.90
6879;DHT22;3478;51.462;7.338;2023-05-27T01:14:30;10.20;99.90
6879;DHT22;3478;51.462;7.338;2023-05-27T01:19:34;10.10;99.90
6879;DHT22;3478;51.462;7.338;2023-05-27T01:24:38;10.10;99.90
6879;DHT22;3478;51.462;7.338;2023-05-27T01:29:42;10.10;99.90
6879;DHT22;3478;51.462;7.338;2023-05-27T01:34:50;10.00;99.90
6879;DHT22;3478;51.462;7.338;2023-05-27T01:39:54;9.90;99.90
6879;DHT22;3478;51.462;7.338;2023-05-27T01:44:57;9.90;99.90
6879;DHT22;3478;51.462;7.338;2023-05-27T01:50:01;9.70;99.90
6879;DHT22;3478;51.462;7.338;2023-05-27T01:55:05;9.70;99.90
6879;DHT22;3478;51.462;7.338;2023-05-27T02:00:09;9.60;99.90
6879;DHT22;3478;51.462;7.338;2023-05-27T02:05:11;9.60;99.90
6879;DHT22;3478;51.462;7.338;2023-05-27T02:10:14;9.50;99.90
6879;DHT22;3478;51.462;7.338;2023-05-27T02:15:16;9.50;99.90
6879;DHT22;3478;51.462;7.338;2023-05-27T02:20:18;9.50;99.90
6879;DHT22;3478;51.462;7.338;2023-05-27T02:25:22;9.50;99.90
6879;DHT22;3478;51.462;7.338;2023-05-27T02:30:24;9.50;99.90
6879;DHT22;3478;51.462;7.338;2023-05-27T02:35:25;9.50;99.90
6879;DHT22;3478;51.462;7.338;2023-05-27T02:40:29;9.40;99.90
6879;DHT22;3478;51.462;7.338;2023-05-27T02:45:31;9.30;99.90
6879;DHT22;3478;51.462;7.338;2023-05-27T02:50:32;9.20;99.90
6879;DHT22;3478;51.462;7.338;2023-05-27T02:55:36;9.20;99.90
6879;DHT22;3478;51.462;7.338;2023-05-27T03:00:38;9.10;99.90
6879;DHT22;3478;51.462;7.338;2023-05-27T03:05:40;9.00;99.90
6879;DHT22;3478;51.462;7.338;2023-05-27T03:10:43;9.00;99.90
6879;DHT22;3478;51.462;7.338;2023-05-27T03:15:45;9.00;99.90
6879;DHT22;3478;51.462;7.338;2023-05-27T03:20:47;9.00;99.90
6879;DHT22;3478;51.462;7.338;2023-05-27T03:25:52;9.00;99.90
6879;DHT22;3478;51.462;7.338;2023-05-27T03:30:53;9.00;99.90
6879;DHT22;3478;51.462;7.338;2023-05-27T03:35:56;9.00;99.90
6879;DHT22;3478;51.462;7.338;2023-05-27T03:40:59;9.00;99.90
6879;DHT22;3478;51.462;7.338;2023-05-27T03:46:01;9.00;99.90
6879;DHT22;3478;51.462;7.338;2023-05-27T03:51:04;9.00;99.90
6879;DHT22;3478;51.462;7.338;2023-05-27T03:56:07;8.90;99.90
6879;DHT22;3478;51.462;7.338;2023-05-27T04:01:09;8.90;99.90
6879;DHT22;3478;51.462;7.338;2023-05-27T04:06:11;8.90;99.90
6879;DHT22;3478;51.462;7.338;2023-05-27T04:11:15;8.90;99.90
6879;DHT22;3478;51.462;7.338;2023-05-27T04:16:17;8.90;99.90
6879;DHT22;3478;51.462;7.338;2023-05-27T04:21:19;9.00;99.90
6879;DHT22;3478;51.462;7.338;2023-05-27T04:26:22;9.10;99.90
6879;DHT22;3478;51.462;7.338;2023-05-27T04:31:24;9.20;99.90
6879;DHT22;3478;51.462;7.338;2023-05-27T04:36:29;9.30;99.90
6879;DHT22;3478;51.462;7.338;2023-05-27T04:41:35;9.40;99.90
6879;DHT22;3478;51.462;7.338;2023-05-27T04:46:39;9.50;99.90
6879;DHT22;3478;51.462;7.338;2023-05-27T04:51:41;9.60;99.90
6879;DHT22;3478;51.462;7.338;2023-05-27T04:56:44;9.70;99.90
6879;DHT22;3478;51.462;7.338;2023-05-27T05:01:46;9.90;99.90
6879;DHT22;3478;51.462;7.338;2023-05-27T05:07:10;10.10;99.90
6879;DHT22;3478;51.462;7.338;2023-05-27T05:12:13;10.20;99.90
6879;DHT22;3478;51.462;7.338;2023-05-27T05:17:15;10.30;99.90
6879;DHT22;3478;51.462;7.338;2023-05-27T05:22:17;10.50;99.90
6879;DHT22;3478;51.462;7.338;2023-05-27T05:27:21;10.60;99.90
6879;DHT22;3478;51.462;7.338;2023-05-27T05:32:23;10.80;99.90
6879;DHT22;3478;51.462;7.338;2023-05-27T05:37:25;10.90;99.90
6879;DHT22;3478;51.462;7.338;2023-05-27T05:42:28;11.10;99.90
6879;DHT22;3478;51.462;7.338;2023-05-27T05:47:30;11.30;99.90
6879;DHT22;3478;51.462;7.338;2023-05-27T05:52:32;11.30;99.90
6879;DHT22;3478;51.462;7.338;2023-05-27T05:57:35;11.60;99.90
6879;DHT22;3478;51.462;7.338;2023-05-27T06:02:37;11.70;99.90
6879;DHT22;3478;51.462;7.338;2023-05-27T06:07:39;11.80;99.90
6879;DHT22;3478;51.462;7.338;2023-05-27T06:12:42;11.90;99.90
6879;DHT22;3478;51.462;7.338;2023-05-27T06:17:44;12.10;99.90
6879;DHT22;3478;51.462;7.338;2023-05-27T06:22:47;12.20;99.90
6879;DHT22;3478;51.462;7.338;2023-05-27T06:27:51;12.30;99.90
6879;DHT22;3478;51.462;7.338;2023-05-27T06:32:52;12.50;99.90
6879;DHT22;3478;51.462;7.338;2023-05-27T06:37:54;12.70;99.90
6879;DHT22;3478;51.462;7.338;2023-05-27T06:42:58;12.80;99.90
6879;DHT22;3478;51.462;7.338;2023-05-27T06:48:00;12.90;99.90
6879;DHT22;3478;51.462;7.338;2023-05-27T06:53:01;13.00;99.90
6879;DHT22;3478;51.462;7.338;2023-05-27T06:58:05;13.10;99.90
6879;DHT22;3478;51.462;7.338;2023-05-27T07:03:07;13.40;99.90
6879;DHT22;3478;51.462;7.338;2023-05-27T07:08:09;13.50;99.90
6879;DHT22;3478;51.462;7.338;2023-05-27T07:13:12;13.80;99.90
6879;DHT22;3478;51.462;7.338;2023-05-27T07:18:16;14.00;99.90
6879;DHT22;3478;51.462;7.338;2023-05-27T07:23:18;14.10;99.90
6879;DHT22;3478;51.462;7.338;2023-05-27T07:28:21;14.20;99.90
6879;DHT22;3478;51.462;7.338;2023-05-27T07:33:23;14.20;99.90
6879;DHT22;3478;51.462;7.338;2023-05-27T07:38:25;14.30;99.90
6879;DHT22;3478;51.462;7.338;2023-05-27T07:43:28;14.40;99.90
6879;DHT22;3478;51.462;7.338;2023-05-27T07:48:30;14.50;99.90
6879;DHT22;3478;51.462;7.338;2023-05-27T07:53:32;14.70;99.90
6879;DHT22;3478;51.462;7.338;2023-05-27T07:58:36;14.80;99.90
6879;DHT22;3478;51.462;7.338;2023-05-27T08:03:38;14.90;99.90
6879;DHT22;3478;51.462;7.338;2023-05-27T08:08:39;15.00;99.90
6879;DHT22;3478;51.462;7.338;2023-05-27T08:13:43;15.10;99.90
6879;DHT22;3478;51.462;7.338;2023-05-27T08:18:45;15.40;99.90
6879;DHT22;3478;51.462;7.338;2023-05-27T08:23:48;15.70;99.90
6879;DHT22;3478;51.462;7.338;2023-05-27T08:28:52;15.90;99.90
6879;DHT22;3478;51.462;7.338;2023-05-27T08:33:54;16.00;99.90
6879;DHT22;3478;51.462;7.338;2023-05-27T08:38:57;16.20;99.90
6879;DHT22;3478;51.462;7.338;2023-05-27T08:44:01;16.40;99.90
6879;DHT22;3478;51.462;7.338;2023-05-27T08:49:02;16.60;99.90
6879;DHT22;3478;51.462;7.338;2023-05-27T08:54:05;16.90;99.90
6879;DHT22;3478;51.462;7.338;2023-05-27T08:59:09;17.20;99.90
6879;DHT22;3478;51.462;7.338;2023-05-27T09:04:11;17.40;99.90
6879;DHT22;3478;51.462;7.338;2023-05-27T09:09:13;17.60;99.90
6879;DHT22;3478;51.462;7.338;2023-05-27T09:14:21;17.90;99.90
6879;DHT22;3478;51.462;7.338;2023-05-27T09:19:23;18.40;99.90
6879;DHT22;3478;51.462;7.338;2023-05-27T09:24:26;19.00;99.90
6879;DHT22;3478;51.462;7.338;2023-05-27T09:29:29;19.40;99.90
6879;DHT22;3478;51.462;7.338;2023-05-27T09:34:37;19.70;99.90
6879;DHT22;3478;51.462;7.338;2023-05-27T09:39:40;20.10;99.90
6879;DHT22;3478;51.462;7.338;2023-05-27T09:44:46;20.30;99.90
6879;DHT22;3478;51.462;7.338;2023-05-27T09:49:49;20.50;99.80
6879;DHT22;3478;51.462;7.338;2023-05-27T09:54:53;21.10;97.00
6879;DHT22;3478;51.462;7.338;2023-05-27T09:59:59;21.70;96.00
6879;DHT22;3478;51.462;7.338;2023-05-27T10:05:03;22.20;95.60
6879;DHT22;3478;51.462;7.338;2023-05-27T10:10:09;22.70;93.50
6879;DHT22;3478;51.462;7.338;2023-05-27T10:15:23;22.60;92.30
6879;DHT22;3478;51.462;7.338;2023-05-27T10:20:30;22.90;90.00
6879;DHT22;3478;51.462;7.338;2023-05-27T10:25:35;22.80;89.90
6879;DHT22;3478;51.462;7.338;2023-05-27T10:30:45;23.20;89.50
6879;DHT22;3478;51.462;7.338;2023-05-27T10:35:50;23.50;85.30
6879;DHT22;3478;51.462;7.338;2023-05-27T10:40:59;23.70;85.70
6879;DHT22;3478;51.462;7.338;2023-05-27T10:46:03;23.90;86.20
6879;DHT22;3478;51.462;7.338;2023-05-27T10:51:06;24.00;85.10
6879;DHT22;3478;51.462;7.338;2023-05-27T10:56:10;24.40;82.60
6879;DHT22;3478;51.462;7.338;2023-05-27T11:01:14;24.70;84.40
6879;DHT22;3478;51.462;7.338;2023-05-27T11:06:17;24.80;82.10
6879;DHT22;3478;51.462;7.338;2023-05-27T11:11:19;24.90;77.20
6879;DHT22;3478;51.462;7.338;2023-05-27T11:16:23;24.90;75.90
6879;DHT22;3478;51.462;7.338;2023-05-27T11:21:25;25.40;76.90
6879;DHT22;3478;51.462;7.338;2023-05-27T11:26:27;25.50;77.20
6879;DHT22;3478;51.462;7.338;2023-05-27T11:31:30;25.70;74.50
6879;DHT22;3478;51.462;7.338;2023-05-27T11:36:35;25.60;72.20
6879;DHT22;3478;51.462;7.338;2023-05-27T11:41:48;26.20;74.30
6879;DHT22;3478;51.462;7.338;2023-05-27T11:46:58;26.30;67.70
6879;DHT22;3478;51.462;7.338;2023-05-27T11:52:00;26.50;71.00
6879;DHT22;3478;51.462;7.338;2023-05-27T11:57:05;27.00;69.80
6879;DHT22;3478;51.462;7.338;2023-05-27T12:02:09;27.30;67.10
6879;DHT22;3478;51.462;7.338;2023-05-27T12:07:11;27.80;68.00
6879;DHT22;3478;51.462;7.338;2023-05-27T12:12:14;28.00;63.60
6879;DHT22;3478;51.462;7.338;2023-05-27T12:17:18;28.50;65.10
6879;DHT22;3478;51.462;7.338;2023-05-27T12:22:20;28.70;60.90
6879;DHT22;3478;51.462;7.338;2023-05-27T12:27:24;29.40;60.00
6879;DHT22;3478;51.462;7.338;2023-05-27T12:32:27;29.50;57.60
6879;DHT22;3478;51.462;7.338;2023-05-27T12:37:29;29.60;57.00
6879;DHT22;3478;51.462;7.338;2023-05-27T12:42:31;29.60;59.70
6879;DHT22;3478;51.462;7.338;2023-05-27T12:47:34;29.70;56.00
6879;DHT22;3478;51.462;7.338;2023-05-27T12:52:36;29.90;52.50
6879;DHT22;3478;51.462;7.338;2023-05-27T12:57:38;30.50;53.00
6879;DHT22;3478;51.462;7.338;2023-05-27T13:02:43;30.20;53.20
6879;DHT22;3478;51.462;7.338;2023-05-27T13:07:53;30.70;51.20
6879;DHT22;3478;51.462;7.338;2023-05-27T13:12:58;30.40;50.60
6879;DHT22;3478;51.462;7.338;2023-05-27T13:18:01;30.90;51.50
6879;DHT22;3478;51.462;7.338;2023-05-27T13:23:07;30.40;47.80
6879;DHT22;3478;51.462;7.338;2023-05-27T13:28:09;30.70;49.60
6879;DHT22;3478;51.462;7.338;2023-05-27T13:33:13;31.40;47.80
6879;DHT22;3478;51.462;7.338;2023-05-27T13:38:16;31.50;47.20
6879;DHT22;3478;51.462;7.338;2023-05-27T13:43:17;31.80;47.40
6879;DHT22;3478;51.462;7.338;2023-05-27T13:48:21;31.10;45.90
6879;DHT22;3478;51.462;7.338;2023-05-27T13:53:24;32.10;46.90
6879;DHT22;3478;51.462;7.338;2023-05-27T13:58:25;32.60;46.50
6879;DHT22;3478;51.462;7.338;2023-05-27T14:03:30;32.30;47.50
6879;DHT22;3478;51.462;7.338;2023-05-27T14:08:32;32.50;46.10
6879;DHT22;3478;51.462;7.338;2023-05-27T14:13:34;32.30;43.80
6879;DHT22;3478;51.462;7.338;2023-05-27T14:18:37;32.80;45.40
6879;DHT22;3478;51.462;7.338;2023-05-27T14:23:40;32.90;43.30
6879;DHT22;3478;51.462;7.338;2023-05-27T14:28:41;32.80;42.70
6879;DHT22;3478;51.462;7.338;2023-05-27T14:33:46;32.60;43.60
6879;DHT22;3478;51.462;7.338;2023-05-27T14:38:48;32.20;42.20
6879;DHT22;3478;51.462;7.338;2023-05-27T14:43:50;32.50;43.50
6879;DHT22;3478;51.462;7.338;2023-05-27T14:48:54;32.80;44.20
6879;DHT22;3478;51.462;7.338;2023-05-27T14:53:56;32.80;44.10
6879;DHT22;3478;51.462;7.338;2023-05-27T14:58:58;32.40;41.80
6879;DHT22;3478;51.462;7.338;2023-05-27T15:04:01;32.00;43.80
6879;DHT22;3478;51.462;7.338;2023-05-27T15:09:03;32.00;41.70
6879;DHT22;3478;51.462;7.338;2023-05-27T15:14:05;31.80;42.60
6879;DHT22;3478;51.462;7.338;2023-05-27T15:19:09;31.70;43.00
6879;DHT22;3478;51.462;7.338;2023-05-27T15:24:11;32.20;42.40
6879;DHT22;3478;51.462;7.338;2023-05-27T15:29:13;32.30;42.20
6879;DHT22;3478;51.462;7.338;2023-05-27T15:34:17;32.10;41.50
6879;DHT22;3478;51.462;7.338;2023-05-27T15:39:21;31.90;40.60
6879;DHT22;3478;51.462;7.338;2023-05-27T15:44:23;31.40;40.40
6879;DHT22;3478;51.462;7.338;2023-05-27T15:49:27;31.40;41.30
6879;DHT22;3478;51.462;7.338;2023-05-27T15:54:28;31.20;39.70
6879;DHT22;3478;51.462;7.338;2023-05-27T15:59:30;31.20;41.40
6879;DHT22;3478;51.462;7.338;2023-05-27T16:04:35;31.30;40.00
6879;DHT22;3478;51.462;7.338;2023-05-27T16:09:36;30.50;41.10
6879;DHT22;3478;51.462;7.338;2023-05-27T16:14:39;30.40;41.50
6879;DHT22;3478;51.462;7.338;2023-05-27T16:19:43;30.50;43.20
6879;DHT22;3478;51.462;7.338;2023-05-27T16:24:45;30.40;42.60
6879;DHT22;3478;51.462;7.338;2023-05-27T16:29:47;30.20;42.30
6879;DHT22;3478;51.462;7.338;2023-05-27T16:34:50;30.10;42.30
6879;DHT22;3478;51.462;7.338;2023-05-27T16:39:52;29.60;42.70
6879;DHT22;3478;51.462;7.338;2023-05-27T16:44:54;29.20;43.40
6879;DHT22;3478;51.462;7.338;2023-05-27T16:49:57;29.20;43.20
6879;DHT22;3478;51.462;7.338;2023-05-27T16:54:59;29.00;42.10
6879;DHT22;3478;51.462;7.338;2023-05-27T17:00:02;29.10;42.80
6879;DHT22;3478;51.462;7.338;2023-05-27T17:05:06;28.80;42.80
6879;DHT22;3478;51.462;7.338;2023-05-27T17:10:09;28.20;43.20
6879;DHT22;3478;51.462;7.338;2023-05-27T17:15:11;28.00;43.30
6879;DHT22;3478;51.462;7.338;2023-05-27T17:20:18;27.90;44.30
6879;DHT22;3478;51.462;7.338;2023-05-27T17:25:20;27.80;43.70
6879;DHT22;3478;51.462;7.338;2023-05-27T17:30:22;27.80;44.40
6879;DHT22;3478;51.462;7.338;2023-05-27T17:35:25;27.70;44.10
6879;DHT22;3478;51.462;7.338;2023-05-27T17:40:27;27.40;44.70
6879;DHT22;3478;51.462;7.338;2023-05-27T17:45:29;27.10;44.30
6879;DHT22;3478;51.462;7.338;2023-05-27T17:50:32;26.70;45.30
6879;DHT22;3478;51.462;7.338;2023-05-27T17:55:34;26.10;44.10
6879;DHT22;3478;51.462;7.338;2023-05-27T18:00:36;25.50;44.50
6879;DHT22;3478;51.462;7.338;2023-05-27T18:05:40;24.90;45.30
6879;DHT22;3478;51.462;7.338;2023-05-27T18:10:42;24.10;46.60
6879;DHT22;3478;51.462;7.338;2023-05-27T18:15:44;23.40;47.70
6879;DHT22;3478;51.462;7.338;2023-05-27T18:20:47;22.90;48.10
6879;DHT22;3478;51.462;7.338;2023-05-27T18:25:49;22.50;48.60
6879;DHT22;3478;51.462;7.338;2023-05-27T18:30:51;22.10;48.90
6879;DHT22;3478;51.462;7.338;2023-05-27T18:35:54;21.80;49.50
6879;DHT22;3478;51.462;7.338;2023-05-27T18:40:56;21.50;49.60
6879;DHT22;3478;51.462;7.338;2023-05-27T18:45:58;21.40;50.30
6879;DHT22;3478;51.462;7.338;2023-05-27T18:51:01;21.20;50.60
6879;DHT22;3478;51.462;7.338;2023-05-27T18:56:05;21.00;51.40
6879;DHT22;3478;51.462;7.338;2023-05-27T19:01:07;20.80;51.50
6879;DHT22;3478;51.462;7.338;2023-05-27T19:06:10;20.60;52.00
6879;DHT22;3478;51.462;7.338;2023-05-27T19:11:12;20.40;52.70
6879;DHT22;3478;51.462;7.338;2023-05-27T19:16:14;20.20;53.30
6879;DHT22;3478;51.462;7.338;2023-05-27T19:21:17;20.00;53.50
6879;DHT22;3478;51.462;7.338;2023-05-27T19:26:19;20.10;54.60
6879;DHT22;3478;51.462;7.338;2023-05-27T19:31:28;19.60;54.70
6879;DHT22;3478;51.462;7.338;2023-05-27T19:36:31;19.50;55.20
6879;DHT22;3478;51.462;7.338;2023-05-27T19:41:33;19.40;56.40
6879;DHT22;3478;51.462;7.338;2023-05-27T19:46:35;19.30;56.20
6879;DHT22;3478;51.462;7.338;2023-05-27T19:51:38;19.10;56.60
6879;DHT22;3478;51.462;7.338;2023-05-27T19:56:40;19.00;57.40
6879;DHT22;3478;51.462;7.338;2023-05-27T20:01:42;18.80;57.90
6879;DHT22;3478;51.462;7.338;2023-05-27T20:06:46;18.70;58.30
6879;DHT22;3478;51.462;7.338;2023-05-27T20:11:48;18.60;59.20
6879;DHT22;3478;51.462;7.338;2023-05-27T20:16:50;18.40;60.30
6879;DHT22;3478;51.462;7.338;2023-05-27T20:21:53;18.30;61.80
6879;DHT22;3478;51.462;7.338;2023-05-27T20:26:55;18.20;63.80
6879;DHT22;3478;51.462;7.338;2023-05-27T20:31:57;18.00;65.50
6879;DHT22;3478;51.462;7.338;2023-05-27T20:37:00;17.90;65.90
6879;DHT22;3478;51.462;7.338;2023-05-27T20:42:02;17.80;67.00
6879;DHT22;3478;51.462;7.338;2023-05-27T20:47:06;17.70;68.00
6879;DHT22;3478;51.462;7.338;2023-05-27T20:52:10;17.60;69.00
6879;DHT22;3478;51.462;7.338;2023-05-27T20:57:12;17.50;70.30
6879;DHT22;3478;51.462;7.338;2023-05-27T21:02:14;17.40;71.30
6879;DHT22;3478;51.462;7.338;2023-05-27T21:07:17;17.30;72.50
6879;DHT22;3478;51.462;7.338;2023-05-27T21:12:20;17.20;74.60
6879;DHT22;3478;51.462;7.338;2023-05-27T21:17:21;17.00;76.40
6879;DHT22;3478;51.462;7.338;2023-05-27T21:22:25;16.90;78.10
6879;DHT22;3478;51.462;7.338;2023-05-27T21:27:27;16.80;78.50
6879;DHT22;3478;51.462;7.338;2023-05-27T21:32:29;16.70;79.10
6879;DHT22;3478;51.462;7.338;2023-05-27T21:37:32;16.70;80.60
6879;DHT22;3478;51.462;7.338;2023-05-27T21:42:34;16.60;80.80
6879;DHT22;3478;51.462;7.338;2023-05-27T21:47:36;16.50;81.30
6879;DHT22;3478;51.462;7.338;2023-05-27T21:52:40;16.50;81.90
6879;DHT22;3478;51.462;7.338;2023-05-27T21:57:42;16.50;84.00
6879;DHT22;3478;51.462;7.338;2023-05-27T22:02:44;16.40;85.70
6879;DHT22;3478;51.462;7.338;2023-05-27T22:07:47;16.40;88.20
6879;DHT22;3478;51.462;7.338;2023-05-27T22:12:49;16.30;86.70
6879;DHT22;3478;51.462;7.338;2023-05-27T22:17:51;16.30;86.70
6879;DHT22;3478;51.462;7.338;2023-05-27T22:22:54;16.20;87.10
6879;DHT22;3478;51.462;7.338;2023-05-27T22:27:56;16.10;88.80
6879;DHT22;3478;51.462;7.338;2023-05-27T22:32:58;16.00;90.50
6879;DHT22;3478;51.462;7.338;2023-05-27T22:38:05;15.90;91.80
6879;DHT22;3478;51.462;7.338;2023-05-27T22:43:07;15.80;92.70
6879;DHT22;3478;51.462;7.338;2023-05-27T22:48:09;15.70;93.90
6879;DHT22;3478;51.462;7.338;2023-05-27T22:53:12;15.50;94.70
6879;DHT22;3478;51.462;7.338;2023-05-27T22:58:14;15.50;95.10
6879;DHT22;3478;51.462;7.338;2023-05-27T23:03:17;15.50;96.30
6879;DHT22;3478;51.462;7.338;2023-05-27T23:08:20;15.30;97.40
6879;DHT22;3478;51.462;7.338;2023-05-27T23:13:22;15.20;97.90
6879;DHT22;3478;51.462;7.338;2023-05-27T23:18:25;15.10;99.40
6879;DHT22;3478;51.462;7.338;2023-05-27T23:23:28;15.10;99.90
6879;DHT22;3478;51.462;7.338;2023-05-27T23:28:30;15.00;99.90
6879;DHT22;3478;51.462;7.338;2023-05-27T23:33:32;15.00;99.90
6879;DHT22;3478;51.462;7.338;2023-05-27T23:38:35;14.90;99.90
6879;DHT22;3478;51.462;7.338;2023-05-27T23:43:37;14.80;99.90
6879;DHT22;3478;51.462;7.338;2023-05-27T23:48:39;14.70;99.90
6879;DHT22;3478;51.462;7.338;2023-05-27T23:53:42;14.60;99.90
6879;DHT22;3478;51.462;7.338;2023-05-27T23:58:44;14.50;99.90
